Oak Hill, Virginia
Current Conditions -  °F | °C
As of 4:52 AM on Sunday 21 Dec 2014 (Local Time) from KIAD Reporting Station
Overcast Overcast  
Wind Chill: 27°   Ceiling: 4400
Heat Index: 32°   Visibility: 10mi
Dew Point: 23°   Wind: 5mph
Humidity: 69%   Direction: 340°NNW
Pressure: 30.3"   Gusts: NA
Location:  38.9257°N, 77.398°W
Report Text: KIAD 210952Z 34004KT 10SM BKN044 OVC065 00/M05 A3030 RMK AO2 SLP265 T00001050
Loading
Personal Weather Stations






























Interactive Weather Map New forecast layout! Learn more

10-Day Weather Forecast

Advertisements
Track Severe Weather on mobile